sensor_id;sensor_type;location;lat;lon;timestamp;P1;durP1;ratioP1;P2;durP2;ratioP2
64244;SDS011;50584;29.058;-110.966;2022-07-01T00:01:35;3.92;;;1.42;;
64244;SDS011;50584;29.058;-110.966;2022-07-01T00:04:01;7.47;;;1.48;;
64244;SDS011;50584;29.058;-110.966;2022-07-01T00:06:27;8.65;;;1.65;;
64244;SDS011;50584;29.058;-110.966;2022-07-01T00:08:53;2.63;;;1.70;;
64244;SDS011;50584;29.058;-110.966;2022-07-01T00:11:19;6.22;;;1.45;;
64244;SDS011;50584;29.058;-110.966;2022-07-01T00:13:45;4.68;;;1.58;;
64244;SDS011;50584;29.058;-110.966;2022-07-01T00:16:11;8.68;;;1.73;;
64244;SDS011;50584;29.058;-110.966;2022-07-01T00:18:37;17.70;;;2.00;;
64244;SDS011;50584;29.058;-110.966;2022-07-01T00:21:03;13.68;;;2.00;;
64244;SDS011;50584;29.058;-110.966;2022-07-01T00:23:29;10.52;;;2.15;;
64244;SDS011;50584;29.058;-110.966;2022-07-01T00:25:56;9.40;;;2.38;;
64244;SDS011;50584;29.058;-110.966;2022-07-01T00:28:22;8.77;;;1.92;;
64244;SDS011;50584;29.058;-110.966;2022-07-01T00:30:48;8.40;;;1.42;;
64244;SDS011;50584;29.058;-110.966;2022-07-01T00:33:14;8.77;;;2.10;;
64244;SDS011;50584;29.058;-110.966;2022-07-01T00:35:39;12.40;;;2.17;;
64244;SDS011;50584;29.058;-110.966;2022-07-01T00:38:05;10.23;;;1.70;;
64244;SDS011;50584;29.058;-110.966;2022-07-01T00:40:31;16.38;;;1.92;;
64244;SDS011;50584;29.058;-110.966;2022-07-01T00:42:57;6.70;;;1.70;;
64244;SDS011;50584;29.058;-110.966;2022-07-01T00:45:23;11.40;;;1.80;;
64244;SDS011;50584;29.058;-110.966;2022-07-01T00:47:49;9.18;;;1.70;;
64244;SDS011;50584;29.058;-110.966;2022-07-01T00:50:15;10.50;;;1.60;;
64244;SDS011;50584;29.058;-110.966;2022-07-01T00:52:41;7.03;;;1.80;;
64244;SDS011;50584;29.058;-110.966;2022-07-01T00:55:08;5.78;;;1.30;;
64244;SDS011;50584;29.058;-110.966;2022-07-01T00:57:36;3.97;;;1.50;;
64244;SDS011;50584;29.058;-110.966;2022-07-01T01:00:09;8.80;;;1.75;;
64244;SDS011;50584;29.058;-110.966;2022-07-01T01:02:35;5.38;;;1.25;;
64244;SDS011;50584;29.058;-110.966;2022-07-01T01:05:05;4.38;;;1.60;;
64244;SDS011;50584;29.058;-110.966;2022-07-01T01:07:31;10.73;;;1.67;;
64244;SDS011;50584;29.058;-110.966;2022-07-01T01:10:00;19.30;;;2.10;;
64244;SDS011;50584;29.058;-110.966;2022-07-01T01:12:27;11.70;;;1.80;;
64244;SDS011;50584;29.058;-110.966;2022-07-01T01:14:53;10.32;;;1.35;;
64244;SDS011;50584;29.058;-110.966;2022-07-01T01:17:20;3.65;;;1.67;;
64244;SDS011;50584;29.058;-110.966;2022-07-01T01:19:49;7.50;;;1.48;;
64244;SDS011;50584;29.058;-110.966;2022-07-01T01:22:15;5.28;;;1.17;;
64244;SDS011;50584;29.058;-110.966;2022-07-01T01:24:41;2.63;;;1.20;;
64244;SDS011;50584;29.058;-110.966;2022-07-01T01:27:08;5.10;;;1.40;;
64244;SDS011;50584;29.058;-110.966;2022-07-01T01:29:37;2.45;;;1.60;;
64244;SDS011;50584;29.058;-110.966;2022-07-01T01:32:04;11.60;;;1.50;;
64244;SDS011;50584;29.058;-110.966;2022-07-01T01:34:31;2.95;;;1.60;;
64244;SDS011;50584;29.058;-110.966;2022-07-01T01:36:57;6.35;;;1.75;;
64244;SDS011;50584;29.058;-110.966;2022-07-01T01:39:23;7.95;;;1.48;;
64244;SDS011;50584;29.058;-110.966;2022-07-01T01:41:49;4.68;;;1.88;;
64244;SDS011;50584;29.058;-110.966;2022-07-01T01:44:15;4.00;;;1.40;;
64244;SDS011;50584;29.058;-110.966;2022-07-01T01:46:40;7.60;;;1.65;;
64244;SDS011;50584;29.058;-110.966;2022-07-01T01:49:07;9.15;;;1.65;;
64244;SDS011;50584;29.058;-110.966;2022-07-01T01:51:33;10.18;;;1.33;;
64244;SDS011;50584;29.058;-110.966;2022-07-01T01:53:59;3.95;;;1.60;;
64244;SDS011;50584;29.058;-110.966;2022-07-01T01:56:25;8.38;;;1.50;;
64244;SDS011;50584;29.058;-110.966;2022-07-01T01:58:51;7.07;;;1.38;;
64244;SDS011;50584;29.058;-110.966;2022-07-01T02:01:17;3.85;;;1.42;;
64244;SDS011;50584;29.058;-110.966;2022-07-01T02:03:43;7.47;;;1.73;;
64244;SDS011;50584;29.058;-110.966;2022-07-01T02:06:10;4.85;;;1.50;;
64244;SDS011;50584;29.058;-110.966;2022-07-01T02:08:37;5.88;;;1.70;;
64244;SDS011;50584;29.058;-110.966;2022-07-01T02:11:03;6.82;;;1.90;;
64244;SDS011;50584;29.058;-110.966;2022-07-01T02:13:29;4.63;;;1.30;;
64244;SDS011;50584;29.058;-110.966;2022-07-01T02:15:55;6.72;;;1.60;;
64244;SDS011;50584;29.058;-110.966;2022-07-01T02:18:22;4.28;;;1.50;;
64244;SDS011;50584;29.058;-110.966;2022-07-01T02:20:48;6.95;;;1.45;;
64244;SDS011;50584;29.058;-110.966;2022-07-01T02:23:14;2.78;;;2.10;;
64244;SDS011;50584;29.058;-110.966;2022-07-01T02:25:40;4.70;;;1.73;;
64244;SDS011;50584;29.058;-110.966;2022-07-01T02:28:06;6.28;;;1.63;;
64244;SDS011;50584;29.058;-110.966;2022-07-01T02:30:33;3.78;;;1.50;;
64244;SDS011;50584;29.058;-110.966;2022-07-01T02:33:04;7.57;;;1.52;;
64244;SDS011;50584;29.058;-110.966;2022-07-01T02:35:34;10.52;;;1.65;;
64244;SDS011;50584;29.058;-110.966;2022-07-01T02:38:00;4.55;;;1.70;;
64244;SDS011;50584;29.058;-110.966;2022-07-01T02:40:26;3.90;;;1.58;;
64244;SDS011;50584;29.058;-110.966;2022-07-01T02:42:52;3.45;;;1.60;;
64244;SDS011;50584;29.058;-110.966;2022-07-01T02:45:18;5.10;;;1.20;;
64244;SDS011;50584;29.058;-110.966;2022-07-01T02:47:43;3.08;;;1.63;;
64244;SDS011;50584;29.058;-110.966;2022-07-01T02:50:12;5.40;;;1.60;;
64244;SDS011;50584;29.058;-110.966;2022-07-01T02:52:39;4.25;;;1.52;;
64244;SDS011;50584;29.058;-110.966;2022-07-01T02:55:05;7.68;;;2.20;;
64244;SDS011;50584;29.058;-110.966;2022-07-01T02:57:32;7.18;;;1.60;;
64244;SDS011;50584;29.058;-110.966;2022-07-01T02:59:58;3.00;;;1.30;;
64244;SDS011;50584;29.058;-110.966;2022-07-01T03:02:24;4.88;;;1.85;;
64244;SDS011;50584;29.058;-110.966;2022-07-01T03:04:50;9.13;;;2.75;;
64244;SDS011;50584;29.058;-110.966;2022-07-01T03:07:16;1.77;;;1.67;;
64244;SDS011;50584;29.058;-110.966;2022-07-01T03:09:43;7.43;;;1.50;;
64244;SDS011;50584;29.058;-110.966;2022-07-01T03:12:09;4.43;;;1.42;;
64244;SDS011;50584;29.058;-110.966;2022-07-01T03:14:54;10.63;;;2.47;;
64244;SDS011;50584;29.058;-110.966;2022-07-01T03:17:24;3.10;;;1.63;;
64244;SDS011;50584;29.058;-110.966;2022-07-01T03:19:50;4.93;;;1.70;;
64244;SDS011;50584;29.058;-110.966;2022-07-01T03:22:23;5.97;;;2.20;;
64244;SDS011;50584;29.058;-110.966;2022-07-01T03:24:49;2.70;;;1.55;;
64244;SDS011;50584;29.058;-110.966;2022-07-01T03:27:16;3.33;;;1.60;;
64244;SDS011;50584;29.058;-110.966;2022-07-01T03:29:42;4.78;;;1.52;;
64244;SDS011;50584;29.058;-110.966;2022-07-01T03:32:08;3.72;;;1.95;;
64244;SDS011;50584;29.058;-110.966;2022-07-01T03:34:41;4.37;;;2.90;;
64244;SDS011;50584;29.058;-110.966;2022-07-01T03:37:07;5.10;;;2.10;;
64244;SDS011;50584;29.058;-110.966;2022-07-01T03:39:34;4.63;;;2.25;;
64244;SDS011;50584;29.058;-110.966;2022-07-01T03:42:00;1.65;;;1.50;;
64244;SDS011;50584;29.058;-110.966;2022-07-01T03:44:26;4.47;;;1.70;;
64244;SDS011;50584;29.058;-110.966;2022-07-01T03:46:52;3.60;;;1.50;;
64244;SDS011;50584;29.058;-110.966;2022-07-01T03:49:18;8.98;;;1.50;;
64244;SDS011;50584;29.058;-110.966;2022-07-01T03:51:44;7.35;;;1.90;;
64244;SDS011;50584;29.058;-110.966;2022-07-01T03:54:10;7.38;;;1.73;;
64244;SDS011;50584;29.058;-110.966;2022-07-01T03:56:54;2.05;;;1.85;;
64244;SDS011;50584;29.058;-110.966;2022-07-01T03:59:20;7.97;;;1.65;;
64244;SDS011;50584;29.058;-110.966;2022-07-01T04:01:46;6.78;;;1.60;;
64244;SDS011;50584;29.058;-110.966;2022-07-01T04:04:12;7.47;;;2.78;;
64244;SDS011;50584;29.058;-110.966;2022-07-01T04:06:38;5.55;;;4.00;;
64244;SDS011;50584;29.058;-110.966;2022-07-01T04:09:04;2.22;;;1.65;;
64244;SDS011;50584;29.058;-110.966;2022-07-01T04:11:30;7.47;;;1.55;;
64244;SDS011;50584;29.058;-110.966;2022-07-01T04:13:57;7.60;;;1.67;;
64244;SDS011;50584;29.058;-110.966;2022-07-01T04:16:23;4.10;;;1.80;;
64244;SDS011;50584;29.058;-110.966;2022-07-01T04:18:51;3.47;;;1.70;;
64244;SDS011;50584;29.058;-110.966;2022-07-01T04:21:17;4.07;;;1.65;;
64244;SDS011;50584;29.058;-110.966;2022-07-01T04:24:01;3.92;;;1.35;;
64244;SDS011;50584;29.058;-110.966;2022-07-01T04:26:27;4.20;;;1.25;;
64244;SDS011;50584;29.058;-110.966;2022-07-01T04:28:53;7.78;;;1.40;;
64244;SDS011;50584;29.058;-110.966;2022-07-01T04:31:19;2.58;;;1.10;;
64244;SDS011;50584;29.058;-110.966;2022-07-01T04:33:46;2.47;;;0.85;;
64244;SDS011;50584;29.058;-110.966;2022-07-01T04:36:12;4.07;;;1.05;;
64244;SDS011;50584;29.058;-110.966;2022-07-01T04:38:38;1.10;;;1.00;;
64244;SDS011;50584;29.058;-110.966;2022-07-01T04:41:04;1.15;;;1.05;;
64244;SDS011;50584;29.058;-110.966;2022-07-01T04:43:47;0.90;;;0.90;;
64244;SDS011;50584;29.058;-110.966;2022-07-01T04:46:13;2.42;;;0.80;;
64244;SDS011;50584;29.058;-110.966;2022-07-01T04:48:39;0.88;;;0.88;;
64244;SDS011;50584;29.058;-110.966;2022-07-01T04:51:06;4.55;;;1.33;;
64244;SDS011;50584;29.058;-110.966;2022-07-01T04:53:31;1.02;;;0.90;;
64244;SDS011;50584;29.058;-110.966;2022-07-01T04:55:57;1.33;;;0.70;;
64244;SDS011;50584;29.058;-110.966;2022-07-01T04:58:23;0.73;;;0.73;;
64244;SDS011;50584;29.058;-110.966;2022-07-01T05:00:50;2.85;;;0.70;;
64244;SDS011;50584;29.058;-110.966;2022-07-01T05:03:16;3.33;;;1.00;;
64244;SDS011;50584;29.058;-110.966;2022-07-01T05:05:42;4.03;;;0.93;;
64244;SDS011;50584;29.058;-110.966;2022-07-01T05:08:08;7.95;;;1.20;;
64244;SDS011;50584;29.058;-110.966;2022-07-01T05:10:34;1.90;;;1.10;;
64244;SDS011;50584;29.058;-110.966;2022-07-01T05:12:59;3.42;;;1.50;;
64244;SDS011;50584;29.058;-110.966;2022-07-01T05:15:25;3.03;;;1.65;;
64244;SDS011;50584;29.058;-110.966;2022-07-01T05:17:51;2.47;;;1.60;;
64244;SDS011;50584;29.058;-110.966;2022-07-01T05:20:35;6.22;;;1.63;;
64244;SDS011;50584;29.058;-110.966;2022-07-01T05:23:19;3.42;;;1.40;;
64244;SDS011;50584;29.058;-110.966;2022-07-01T05:25:46;4.53;;;1.48;;
64244;SDS011;50584;29.058;-110.966;2022-07-01T05:28:12;2.58;;;1.35;;
64244;SDS011;50584;29.058;-110.966;2022-07-01T05:30:38;8.75;;;1.70;;
64244;SDS011;50584;29.058;-110.966;2022-07-01T05:33:03;4.20;;;1.50;;
64244;SDS011;50584;29.058;-110.966;2022-07-01T05:35:29;4.72;;;1.40;;
64244;SDS011;50584;29.058;-110.966;2022-07-01T05:37:56;1.65;;;1.17;;
64244;SDS011;50584;29.058;-110.966;2022-07-01T05:40:22;1.33;;;1.13;;
64244;SDS011;50584;29.058;-110.966;2022-07-01T05:42:48;3.65;;;1.35;;
64244;SDS011;50584;29.058;-110.966;2022-07-01T05:45:14;2.20;;;1.30;;
64244;SDS011;50584;29.058;-110.966;2022-07-01T05:47:40;4.00;;;1.73;;
64244;SDS011;50584;29.058;-110.966;2022-07-01T05:50:06;1.25;;;1.15;;
64244;SDS011;50584;29.058;-110.966;2022-07-01T05:52:32;2.35;;;1.33;;
64244;SDS011;50584;29.058;-110.966;2022-07-01T05:54:58;2.58;;;1.27;;
64244;SDS011;50584;29.058;-110.966;2022-07-01T05:57:24;1.20;;;1.10;;
64244;SDS011;50584;29.058;-110.966;2022-07-01T05:59:49;4.40;;;1.30;;
64244;SDS011;50584;29.058;-110.966;2022-07-01T06:02:15;1.27;;;1.10;;
64244;SDS011;50584;29.058;-110.966;2022-07-01T06:04:41;2.20;;;1.20;;
64244;SDS011;50584;29.058;-110.966;2022-07-01T06:07:08;1.67;;;1.27;;
64244;SDS011;50584;29.058;-110.966;2022-07-01T06:09:38;1.20;;;1.10;;
64244;SDS011;50584;29.058;-110.966;2022-07-01T06:12:05;1.05;;;1.00;;
64244;SDS011;50584;29.058;-110.966;2022-07-01T06:14:31;1.95;;;1.10;;
64244;SDS011;50584;29.058;-110.966;2022-07-01T06:16:57;0.90;;;0.90;;
64244;SDS011;50584;29.058;-110.966;2022-07-01T06:19:23;1.30;;;1.10;;
64244;SDS011;50584;29.058;-110.966;2022-07-01T06:21:49;4.20;;;1.25;;
64244;SDS011;50584;29.058;-110.966;2022-07-01T06:24:15;1.35;;;1.20;;
64244;SDS011;50584;29.058;-110.966;2022-07-01T06:26:41;3.30;;;0.95;;
64244;SDS011;50584;29.058;-110.966;2022-07-01T06:29:07;2.70;;;1.30;;
64244;SDS011;50584;29.058;-110.966;2022-07-01T06:31:33;1.05;;;0.95;;
64244;SDS011;50584;29.058;-110.966;2022-07-01T06:33:59;2.47;;;1.00;;
64244;SDS011;50584;29.058;-110.966;2022-07-01T06:36:25;2.33;;;1.38;;
64244;SDS011;50584;29.058;-110.966;2022-07-01T06:38:51;1.40;;;1.00;;
64244;SDS011;50584;29.058;-110.966;2022-07-01T06:41:17;1.13;;;1.02;;
64244;SDS011;50584;29.058;-110.966;2022-07-01T06:43:55;2.88;;;1.20;;
64244;SDS011;50584;29.058;-110.966;2022-07-01T06:46:21;4.18;;;1.38;;
64244;SDS011;50584;29.058;-110.966;2022-07-01T06:48:47;2.70;;;1.33;;
64244;SDS011;50584;29.058;-110.966;2022-07-01T06:51:13;2.20;;;1.08;;
64244;SDS011;50584;29.058;-110.966;2022-07-01T06:53:39;2.92;;;1.25;;
64244;SDS011;50584;29.058;-110.966;2022-07-01T06:56:05;1.02;;;1.02;;
64244;SDS011;50584;29.058;-110.966;2022-07-01T06:58:31;1.77;;;1.17;;
64244;SDS011;50584;29.058;-110.966;2022-07-01T07:00:57;3.00;;;1.27;;
64244;SDS011;50584;29.058;-110.966;2022-07-01T07:03:23;2.05;;;1.20;;
64244;SDS011;50584;29.058;-110.966;2022-07-01T07:05:49;2.30;;;1.20;;
64244;SDS011;50584;29.058;-110.966;2022-07-01T07:08:15;3.08;;;1.38;;
64244;SDS011;50584;29.058;-110.966;2022-07-01T07:10:41;8.73;;;1.35;;
64244;SDS011;50584;29.058;-110.966;2022-07-01T07:13:07;12.00;;;1.50;;
64244;SDS011;50584;29.058;-110.966;2022-07-01T07:15:33;1.42;;;1.33;;
64244;SDS011;50584;29.058;-110.966;2022-07-01T07:17:59;3.47;;;1.40;;
64244;SDS011;50584;29.058;-110.966;2022-07-01T07:20:25;2.97;;;1.48;;
64244;SDS011;50584;29.058;-110.966;2022-07-01T07:22:51;5.25;;;1.30;;
64244;SDS011;50584;29.058;-110.966;2022-07-01T07:25:17;3.72;;;1.40;;
64244;SDS011;50584;29.058;-110.966;2022-07-01T07:27:43;1.83;;;1.50;;
64244;SDS011;50584;29.058;-110.966;2022-07-01T07:30:15;3.38;;;1.35;;
64244;SDS011;50584;29.058;-110.966;2022-07-01T07:32:41;1.98;;;1.45;;
64244;SDS011;50584;29.058;-110.966;2022-07-01T07:35:07;3.78;;;1.30;;
64244;SDS011;50584;29.058;-110.966;2022-07-01T07:37:33;3.00;;;1.30;;
64244;SDS011;50584;29.058;-110.966;2022-07-01T07:39:59;2.90;;;1.30;;
64244;SDS011;50584;29.058;-110.966;2022-07-01T07:42:26;1.20;;;1.10;;
64244;SDS011;50584;29.058;-110.966;2022-07-01T07:44:52;3.80;;;1.30;;
64244;SDS011;50584;29.058;-110.966;2022-07-01T07:47:18;1.63;;;1.10;;
64244;SDS011;50584;29.058;-110.966;2022-07-01T07:49:44;1.48;;;1.27;;
64244;SDS011;50584;29.058;-110.966;2022-07-01T07:52:10;1.60;;;1.50;;
64244;SDS011;50584;29.058;-110.966;2022-07-01T07:54:37;1.58;;;1.30;;
64244;SDS011;50584;29.058;-110.966;2022-07-01T07:57:03;1.45;;;1.27;;
64244;SDS011;50584;29.058;-110.966;2022-07-01T07:59:29;2.60;;;1.23;;
64244;SDS011;50584;29.058;-110.966;2022-07-01T08:01:55;2.75;;;1.25;;
64244;SDS011;50584;29.058;-110.966;2022-07-01T08:04:21;1.90;;;1.42;;
64244;SDS011;50584;29.058;-110.966;2022-07-01T08:06:46;3.72;;;1.30;;
64244;SDS011;50584;29.058;-110.966;2022-07-01T08:09:12;3.03;;;1.50;;
64244;SDS011;50584;29.058;-110.966;2022-07-01T08:11:38;4.35;;;1.50;;
64244;SDS011;50584;29.058;-110.966;2022-07-01T08:14:04;5.65;;;1.60;;
64244;SDS011;50584;29.058;-110.966;2022-07-01T08:16:30;1.77;;;1.48;;
64244;SDS011;50584;29.058;-110.966;2022-07-01T08:18:56;4.10;;;1.80;;
64244;SDS011;50584;29.058;-110.966;2022-07-01T08:21:22;5.53;;;1.70;;
64244;SDS011;50584;29.058;-110.966;2022-07-01T08:23:47;2.05;;;1.88;;
64244;SDS011;50584;29.058;-110.966;2022-07-01T08:26:13;2.72;;;1.60;;
64244;SDS011;50584;29.058;-110.966;2022-07-01T08:28:40;6.30;;;1.75;;
64244;SDS011;50584;29.058;-110.966;2022-07-01T08:31:06;1.35;;;1.25;;
64244;SDS011;50584;29.058;-110.966;2022-07-01T08:33:32;2.47;;;1.40;;
64244;SDS011;50584;29.058;-110.966;2022-07-01T08:35:58;2.03;;;1.58;;
64244;SDS011;50584;29.058;-110.966;2022-07-01T08:38:24;1.67;;;1.58;;
64244;SDS011;50584;29.058;-110.966;2022-07-01T08:40:49;2.13;;;1.50;;
64244;SDS011;50584;29.058;-110.966;2022-07-01T08:43:15;2.58;;;1.40;;
64244;SDS011;50584;29.058;-110.966;2022-07-01T08:45:41;1.00;;;1.00;;
64244;SDS011;50584;29.058;-110.966;2022-07-01T08:48:07;1.58;;;1.23;;
64244;SDS011;50584;29.058;-110.966;2022-07-01T08:50:34;1.60;;;1.00;;
64244;SDS011;50584;29.058;-110.966;2022-07-01T08:53:00;1.30;;;1.20;;
64244;SDS011;50584;29.058;-110.966;2022-07-01T08:55:27;2.25;;;0.90;;
64244;SDS011;50584;29.058;-110.966;2022-07-01T08:57:52;0.80;;;0.80;;
64244;SDS011;50584;29.058;-110.966;2022-07-01T09:00:19;2.22;;;1.08;;
64244;SDS011;50584;29.058;-110.966;2022-07-01T09:02:55;0.90;;;0.90;;
64244;SDS011;50584;29.058;-110.966;2022-07-01T09:05:22;1.30;;;0.93;;
64244;SDS011;50584;29.058;-110.966;2022-07-01T09:07:48;1.35;;;0.95;;
64244;SDS011;50584;29.058;-110.966;2022-07-01T09:10:15;1.02;;;1.02;;
64244;SDS011;50584;29.058;-110.966;2022-07-01T09:12:44;2.15;;;1.05;;
64244;SDS011;50584;29.058;-110.966;2022-07-01T09:15:23;0.93;;;0.93;;
64244;SDS011;50584;29.058;-110.966;2022-07-01T09:17:53;1.75;;;1.10;;
64244;SDS011;50584;29.058;-110.966;2022-07-01T09:20:23;1.00;;;0.90;;
64244;SDS011;50584;29.058;-110.966;2022-07-01T09:23:03;0.90;;;0.90;;
64244;SDS011;50584;29.058;-110.966;2022-07-01T09:25:30;0.88;;;0.88;;
64244;SDS011;50584;29.058;-110.966;2022-07-01T09:28:03;0.85;;;0.85;;
64244;SDS011;50584;29.058;-110.966;2022-07-01T09:30:29;0.70;;;0.70;;
64244;SDS011;50584;29.058;-110.966;2022-07-01T09:33:05;1.60;;;1.00;;
64244;SDS011;50584;29.058;-110.966;2022-07-01T09:35:31;1.00;;;1.00;;
64244;SDS011;50584;29.058;-110.966;2022-07-01T09:37:57;0.90;;;0.90;;
64244;SDS011;50584;29.058;-110.966;2022-07-01T09:40:23;0.90;;;0.90;;
64244;SDS011;50584;29.058;-110.966;2022-07-01T09:42:49;1.02;;;0.98;;
64244;SDS011;50584;29.058;-110.966;2022-07-01T09:45:16;0.90;;;0.90;;
64244;SDS011;50584;29.058;-110.966;2022-07-01T09:47:42;3.17;;;1.00;;
64244;SDS011;50584;29.058;-110.966;2022-07-01T09:50:11;1.30;;;1.20;;
64244;SDS011;50584;29.058;-110.966;2022-07-01T09:52:36;3.17;;;1.00;;
64244;SDS011;50584;29.058;-110.966;2022-07-01T09:55:06;1.10;;;1.02;;
64244;SDS011;50584;29.058;-110.966;2022-07-01T09:57:32;1.13;;;1.02;;
64244;SDS011;50584;29.058;-110.966;2022-07-01T09:59:58;1.80;;;1.00;;
64244;SDS011;50584;29.058;-110.966;2022-07-01T10:02:24;0.90;;;0.90;;
64244;SDS011;50584;29.058;-110.966;2022-07-01T10:04:56;1.02;;;1.00;;
64244;SDS011;50584;29.058;-110.966;2022-07-01T10:10:00;1.40;;;0.93;;
64244;SDS011;50584;29.058;-110.966;2022-07-01T10:14:54;0.93;;;0.93;;
64244;SDS011;50584;29.058;-110.966;2022-07-01T10:17:31;0.95;;;0.90;;
64244;SDS011;50584;29.058;-110.966;2022-07-01T10:20:05;2.75;;;1.17;;
64244;SDS011;50584;29.058;-110.966;2022-07-01T10:22:34;4.53;;;1.23;;
64244;SDS011;50584;29.058;-110.966;2022-07-01T10:30:36;1.27;;;1.10;;
64244;SDS011;50584;29.058;-110.966;2022-07-01T10:33:26;2.15;;;1.10;;
64244;SDS011;50584;29.058;-110.966;2022-07-01T10:35:52;1.42;;;1.33;;
64244;SDS011;50584;29.058;-110.966;2022-07-01T10:38:18;1.83;;;1.73;;
64244;SDS011;50584;29.058;-110.966;2022-07-01T10:40:44;1.10;;;1.10;;
64244;SDS011;50584;29.058;-110.966;2022-07-01T10:43:14;1.52;;;1.42;;
64244;SDS011;50584;29.058;-110.966;2022-07-01T10:45:41;1.60;;;1.33;;
64244;SDS011;50584;29.058;-110.966;2022-07-01T10:48:17;1.58;;;1.40;;
64244;SDS011;50584;29.058;-110.966;2022-07-01T10:50:43;2.13;;;1.25;;
64244;SDS011;50584;29.058;-110.966;2022-07-01T10:53:11;1.33;;;1.23;;
64244;SDS011;50584;29.058;-110.966;2022-07-01T10:55:37;2.45;;;1.30;;
64244;SDS011;50584;29.058;-110.966;2022-07-01T10:58:03;1.48;;;1.20;;
64244;SDS011;50584;29.058;-110.966;2022-07-01T11:00:30;1.20;;;1.20;;
64244;SDS011;50584;29.058;-110.966;2022-07-01T11:03:08;1.05;;;1.05;;
64244;SDS011;50584;29.058;-110.966;2022-07-01T11:05:34;2.45;;;1.08;;
64244;SDS011;50584;29.058;-110.966;2022-07-01T11:08:00;1.52;;;1.40;;
64244;SDS011;50584;29.058;-110.966;2022-07-01T11:10:26;1.20;;;1.20;;
64244;SDS011;50584;29.058;-110.966;2022-07-01T11:12:52;5.30;;;1.23;;
64244;SDS011;50584;29.058;-110.966;2022-07-01T11:15:18;1.25;;;1.25;;
64244;SDS011;50584;29.058;-110.966;2022-07-01T11:17:46;2.50;;;1.30;;
64244;SDS011;50584;29.058;-110.966;2022-07-01T11:20:12;2.22;;;1.20;;
64244;SDS011;50584;29.058;-110.966;2022-07-01T11:22:38;1.60;;;1.50;;
64244;SDS011;50584;29.058;-110.966;2022-07-01T11:25:08;4.88;;;1.70;;
64244;SDS011;50584;29.058;-110.966;2022-07-01T11:27:34;1.40;;;1.40;;
64244;SDS011;50584;29.058;-110.966;2022-07-01T11:30:02;1.13;;;1.10;;
64244;SDS011;50584;29.058;-110.966;2022-07-01T11:32:31;1.30;;;1.20;;
64244;SDS011;50584;29.058;-110.966;2022-07-01T11:34:57;2.28;;;1.45;;
64244;SDS011;50584;29.058;-110.966;2022-07-01T11:37:28;3.65;;;1.85;;
64244;SDS011;50584;29.058;-110.966;2022-07-01T11:40:13;1.77;;;1.40;;
64244;SDS011;50584;29.058;-110.966;2022-07-01T11:42:40;1.77;;;1.48;;
64244;SDS011;50584;29.058;-110.966;2022-07-01T11:45:06;2.20;;;1.33;;
64244;SDS011;50584;29.058;-110.966;2022-07-01T11:47:32;6.72;;;1.20;;
64244;SDS011;50584;29.058;-110.966;2022-07-01T11:49:58;2.25;;;1.45;;
64244;SDS011;50584;29.058;-110.966;2022-07-01T11:52:25;1.58;;;1.35;;
64244;SDS011;50584;29.058;-110.966;2022-07-01T11:54:52;1.10;;;1.10;;
64244;SDS011;50584;29.058;-110.966;2022-07-01T11:57:19;3.13;;;1.45;;
64244;SDS011;50584;29.058;-110.966;2022-07-01T11:59:46;8.20;;;1.50;;
64244;SDS011;50584;29.058;-110.966;2022-07-01T12:02:13;4.40;;;1.50;;
64244;SDS011;50584;29.058;-110.966;2022-07-01T12:04:40;3.00;;;1.40;;
64244;SDS011;50584;29.058;-110.966;2022-07-01T12:07:06;2.08;;;1.45;;
64244;SDS011;50584;29.058;-110.966;2022-07-01T12:09:32;2.72;;;1.40;;
64244;SDS011;50584;29.058;-110.966;2022-07-01T12:11:59;1.50;;;1.40;;
64244;SDS011;50584;29.058;-110.966;2022-07-01T12:14:26;5.10;;;1.58;;
64244;SDS011;50584;29.058;-110.966;2022-07-01T12:16:53;1.58;;;1.48;;
64244;SDS011;50584;29.058;-110.966;2022-07-01T12:19:20;2.95;;;1.33;;
64244;SDS011;50584;29.058;-110.966;2022-07-01T12:21:50;2.25;;;1.40;;
64244;SDS011;50584;29.058;-110.966;2022-07-01T12:24:17;1.48;;;1.20;;
64244;SDS011;50584;29.058;-110.966;2022-07-01T12:29:22;1.67;;;1.30;;
64244;SDS011;50584;29.058;-110.966;2022-07-01T12:31:58;1.50;;;1.40;;
64244;SDS011;50584;29.058;-110.966;2022-07-01T12:37:19;2.00;;;1.80;;
64244;SDS011;50584;29.058;-110.966;2022-07-01T12:39:46;2.25;;;2.00;;
64244;SDS011;50584;29.058;-110.966;2022-07-01T12:44:59;2.72;;;1.67;;
64244;SDS011;50584;29.058;-110.966;2022-07-01T12:47:26;2.75;;;1.30;;
64244;SDS011;50584;29.058;-110.966;2022-07-01T12:52:34;2.28;;;1.30;;
64244;SDS011;50584;29.058;-110.966;2022-07-01T12:55:00;1.30;;;1.30;;
64244;SDS011;50584;29.058;-110.966;2022-07-01T12:57:31;1.70;;;1.60;;
64244;SDS011;50584;29.058;-110.966;2022-07-01T12:59:58;3.28;;;1.52;;
64244;SDS011;50584;29.058;-110.966;2022-07-01T13:02:24;1.70;;;1.40;;
64244;SDS011;50584;29.058;-110.966;2022-07-01T13:04:49;2.85;;;1.63;;
64244;SDS011;50584;29.058;-110.966;2022-07-01T13:07:15;2.22;;;1.50;;
64244;SDS011;50584;29.058;-110.966;2022-07-01T13:09:41;3.30;;;1.40;;
64244;SDS011;50584;29.058;-110.966;2022-07-01T13:12:07;2.90;;;1.50;;
64244;SDS011;50584;29.058;-110.966;2022-07-01T13:14:33;2.17;;;1.50;;
64244;SDS011;50584;29.058;-110.966;2022-07-01T13:16:59;4.65;;;1.80;;
64244;SDS011;50584;29.058;-110.966;2022-07-01T13:19:25;1.58;;;1.48;;
64244;SDS011;50584;29.058;-110.966;2022-07-01T13:21:51;2.58;;;1.70;;
64244;SDS011;50584;29.058;-110.966;2022-07-01T13:24:16;3.13;;;1.30;;
64244;SDS011;50584;29.058;-110.966;2022-07-01T13:26:42;1.73;;;1.35;;
64244;SDS011;50584;29.058;-110.966;2022-07-01T13:29:08;2.33;;;1.30;;
64244;SDS011;50584;29.058;-110.966;2022-07-01T13:31:34;5.75;;;1.40;;
64244;SDS011;50584;29.058;-110.966;2022-07-01T13:34:00;1.45;;;1.13;;
64244;SDS011;50584;29.058;-110.966;2022-07-01T13:36:25;4.85;;;1.30;;
64244;SDS011;50584;29.058;-110.966;2022-07-01T13:38:51;2.28;;;1.30;;
64244;SDS011;50584;29.058;-110.966;2022-07-01T13:41:17;1.35;;;1.25;;
64244;SDS011;50584;29.058;-110.966;2022-07-01T13:43:43;2.78;;;1.30;;
64244;SDS011;50584;29.058;-110.966;2022-07-01T13:46:09;1.60;;;1.50;;
64244;SDS011;50584;29.058;-110.966;2022-07-01T13:48:35;1.55;;;1.25;;
64244;SDS011;50584;29.058;-110.966;2022-07-01T13:51:00;4.68;;;1.42;;
64244;SDS011;50584;29.058;-110.966;2022-07-01T13:53:26;3.22;;;1.25;;
64244;SDS011;50584;29.058;-110.966;2022-07-01T13:55:52;1.33;;;1.23;;
64244;SDS011;50584;29.058;-110.966;2022-07-01T13:58:18;4.05;;;1.65;;
64244;SDS011;50584;29.058;-110.966;2022-07-01T14:00:44;1.35;;;1.25;;
64244;SDS011;50584;29.058;-110.966;2022-07-01T14:03:09;1.60;;;1.40;;
64244;SDS011;50584;29.058;-110.966;2022-07-01T14:05:38;3.15;;;1.42;;
64244;SDS011;50584;29.058;-110.966;2022-07-01T14:08:04;1.80;;;1.50;;
64244;SDS011;50584;29.058;-110.966;2022-07-01T14:10:30;4.30;;;1.80;;
64244;SDS011;50584;29.058;-110.966;2022-07-01T14:12:56;1.35;;;1.20;;
64244;SDS011;50584;29.058;-110.966;2022-07-01T14:15:22;2.95;;;1.40;;
64244;SDS011;50584;29.058;-110.966;2022-07-01T14:17:48;23.38;;;1.88;;
64244;SDS011;50584;29.058;-110.966;2022-07-01T14:20:14;2.67;;;1.45;;
64244;SDS011;50584;29.058;-110.966;2022-07-01T14:22:39;14.93;;;1.70;;
64244;SDS011;50584;29.058;-110.966;2022-07-01T14:25:05;28.85;;;14.27;;
64244;SDS011;50584;29.058;-110.966;2022-07-01T14:27:31;14.73;;;10.50;;
64244;SDS011;50584;29.058;-110.966;2022-07-01T14:29:57;38.20;;;21.65;;